createdAt,value
2022-12-09T00:00:46.230Z,31.31
2022-12-09T00:05:46.439Z,31.20
2022-12-09T00:10:45.625Z,31.06
2022-12-09T00:15:44.934Z,31.38
2022-12-09T00:20:44.968Z,31.92
2022-12-09T00:25:44.152Z,32.28
2022-12-09T00:30:42.406Z,32.57
2022-12-09T00:35:42.748Z,30.39
2022-12-09T00:40:40.042Z,31.31
2022-12-09T00:45:39.222Z,31.84
2022-12-09T00:50:39.410Z,31.02
2022-12-09T00:55:37.934Z,30.27
2022-12-09T01:00:36.828Z,28.54
2022-12-09T01:05:36.307Z,27.25
2022-12-09T01:10:35.340Z,25.85
2022-12-09T01:15:34.584Z,27.31
2022-12-09T01:20:34.140Z,29.04
2022-12-09T01:25:34.211Z,30.79
2022-12-09T01:30:34.460Z,32.25
2022-12-09T01:35:31.634Z,32.67
2022-12-09T01:40:31.028Z,31.96
2022-12-09T01:45:31.302Z,30.79
2022-12-09T01:50:30.283Z,29.76
2022-12-09T01:55:28.466Z,28.93
2022-12-09T02:00:27.691Z,26.95
2022-12-09T02:05:28.222Z,28.83
2022-12-09T02:10:26.342Z,28.98
2022-12-09T02:15:25.334Z,31.06
2022-12-09T02:20:24.808Z,31.72
2022-12-09T02:25:23.831Z,31.95
2022-12-09T02:30:23.179Z,31.88
2022-12-09T02:35:24.451Z,30.69
2022-12-09T02:40:20.663Z,30.08
2022-12-09T02:45:20.862Z,29.94
2022-12-09T02:50:19.877Z,31.04
2022-12-09T02:55:19.355Z,31.91
2022-12-09T03:00:18.371Z,31.96
2022-12-09T03:05:17.768Z,32.13
2022-12-09T03:10:17.067Z,31.48
2022-12-09T03:15:16.098Z,28.62
2022-12-09T03:20:15.470Z,27.39
2022-12-09T03:25:15.439Z,26.73
2022-12-09T03:30:13.949Z,26.26
2022-12-09T03:35:16.071Z,26.88
2022-12-09T03:40:14.288Z,29.46
2022-12-09T03:45:12.374Z,30.38
2022-12-09T03:50:10.930Z,30.95
2022-12-09T03:55:11.254Z,31.63
2022-12-09T04:00:09.700Z,30.72
2022-12-09T04:05:08.585Z,29.58
2022-12-09T04:10:10.705Z,28.83
2022-12-09T04:15:06.649Z,27.70
2022-12-09T04:20:06.292Z,27.22
2022-12-09T04:25:05.243Z,27.65
2022-12-09T04:30:07.223Z,29.08
2022-12-09T04:35:04.504Z,31.13
2022-12-09T04:40:04.988Z,31.69
2022-12-09T04:45:02.227Z,32.18
2022-12-09T04:50:02.202Z,32.37
2022-12-09T04:55:01.403Z,32.69
2022-12-09T04:59:59.811Z,32.79
2022-12-09T05:04:59.924Z,32.82
2022-12-09T05:09:58.137Z,32.44
2022-12-09T05:14:57.398Z,32.33
2022-12-09T05:19:57.582Z,31.75
2022-12-09T05:24:56.014Z,31.89
2022-12-09T05:29:55.349Z,31.84
2022-12-09T05:34:54.394Z,32.15
2022-12-09T05:39:53.642Z,31.69
2022-12-09T05:44:54.219Z,31.65
2022-12-09T05:49:52.404Z,31.86
2022-12-09T05:54:51.394Z,32.19
2022-12-09T05:59:50.789Z,31.93
2022-12-09T06:04:49.782Z,31.16
2022-12-09T06:09:50.426Z,29.76
2022-12-09T06:14:48.309Z,27.97
2022-12-09T06:19:48.537Z,26.84
2022-12-09T06:24:51.164Z,27.47
2022-12-09T06:29:47.342Z,28.70
2022-12-09T06:34:45.584Z,30.51
2022-12-09T06:39:44.870Z,31.16
2022-12-09T06:44:43.703Z,31.93
2022-12-09T06:49:43.052Z,31.84
2022-12-09T06:54:42.517Z,31.09
2022-12-09T06:59:41.568Z,29.74
2022-12-09T07:04:40.763Z,28.59
2022-12-09T07:09:39.972Z,27.17
2022-12-09T07:14:40.556Z,26.75
2022-12-09T07:19:38.734Z,26.17
2022-12-09T07:24:38.843Z,27.70
2022-12-09T07:29:37.206Z,28.00
2022-12-09T07:34:37.256Z,29.04
2022-12-09T07:39:35.433Z,29.65
2022-12-09T07:44:35.748Z,29.94
2022-12-09T07:49:34.106Z,30.08
2022-12-09T07:54:34.401Z,30.38
2022-12-09T07:59:32.426Z,30.67
2022-12-09T08:04:32.809Z,30.84
2022-12-09T08:09:31.141Z,31.26
2022-12-09T08:14:30.891Z,31.54
2022-12-09T08:19:29.574Z,31.95
2022-12-09T08:24:28.756Z,31.51
2022-12-09T08:29:27.833Z,29.55
2022-12-09T08:34:27.002Z,28.09
2022-12-09T08:39:26.977Z,27.24
2022-12-09T08:44:25.334Z,26.54
2022-12-09T08:49:24.509Z,25.92
2022-12-09T08:54:24.053Z,24.78
2022-12-09T08:59:23.055Z,23.31
2022-12-09T09:04:23.486Z,22.15
2022-12-09T09:09:21.516Z,21.31
2022-12-09T09:14:20.969Z,20.89
2022-12-09T09:19:19.986Z,20.35
2022-12-09T09:24:20.227Z,20.16
2022-12-09T09:29:18.288Z,19.77
2022-12-09T09:34:17.910Z,19.44
2022-12-09T09:39:16.782Z,19.08
2022-12-09T09:44:17.370Z,18.88
2022-12-09T09:49:16.470Z,18.65
2022-12-09T09:54:14.705Z,18.54
2022-12-09T09:59:15.994Z,18.21
2022-12-09T10:04:13.169Z,18.11
2022-12-09T10:09:13.399Z,17.87
2022-12-09T10:14:11.364Z,17.68
2022-12-09T10:19:11.483Z,17.55
2022-12-09T10:24:11.041Z,17.58
2022-12-09T10:29:09.049Z,17.33
2022-12-09T10:34:09.380Z,17.33
2022-12-09T10:39:07.486Z,17.21
2022-12-09T10:44:08.442Z,16.94
2022-12-09T10:49:09.697Z,17.03
2022-12-09T10:54:06.346Z,17.06
2022-12-09T10:59:07.507Z,17.19
2022-12-09T11:04:04.955Z,17.19
2022-12-09T11:09:04.352Z,16.66
2022-12-09T11:14:03.599Z,16.83
2022-12-09T11:19:02.487Z,16.68
2022-12-09T11:24:03.456Z,16.85
2022-12-09T11:29:01.804Z,17.03
2022-12-09T11:33:59.236Z,16.94
2022-12-09T11:38:59.183Z,16.56
2022-12-09T11:43:57.448Z,16.81
2022-12-09T11:48:57.768Z,16.49
2022-12-09T11:54:01.664Z,16.96
2022-12-09T11:58:56.250Z,16.02
2022-12-09T12:03:53.586Z,16.25
2022-12-09T12:08:54.837Z,15.82
2022-12-09T12:13:52.978Z,16.34
2022-12-09T12:18:54.277Z,15.83
2022-12-09T12:23:52.545Z,16.73
2022-12-09T12:28:57.313Z,16.57
2022-12-09T12:38:52.343Z,16.67
2022-12-09T12:43:49.593Z,16.83
2022-12-09T12:48:47.864Z,17.22
2022-12-09T12:53:48.118Z,17.38
2022-12-09T12:58:47.413Z,17.37
2022-12-09T13:03:45.729Z,17.23
2022-12-09T13:08:44.841Z,17.18
2022-12-09T13:13:45.126Z,16.85
2022-12-09T13:18:44.435Z,16.93
2022-12-09T13:23:44.816Z,16.98
2022-12-09T13:28:41.883Z,16.85
2022-12-09T13:33:41.151Z,17.03
2022-12-09T13:38:40.403Z,16.63
2022-12-09T13:43:41.726Z,16.24
2022-12-09T13:48:40.079Z,16.41
2022-12-09T13:53:45.487Z,15.82
2022-12-09T13:58:37.429Z,15.71
2022-12-09T14:03:37.571Z,16.20
2022-12-09T14:08:35.715Z,15.80
2022-12-09T14:13:34.988Z,15.97
2022-12-09T14:18:35.516Z,15.53
2022-12-09T14:23:33.377Z,15.82
2022-12-09T14:28:32.668Z,15.76
2022-12-09T14:33:31.944Z,16.33
2022-12-09T14:38:30.220Z,16.48
2022-12-09T14:43:32.520Z,16.46
2022-12-09T14:48:30.801Z,16.35
2022-12-09T14:53:31.103Z,16.12
2022-12-09T14:58:28.485Z,15.96
2022-12-09T15:03:34.154Z,15.80
2022-12-09T15:08:27.227Z,15.96
2022-12-09T15:13:26.061Z,16.00
2022-12-09T15:18:24.381Z,16.11
2022-12-09T15:23:26.504Z,16.17
2022-12-09T15:28:26.666Z,16.34
2022-12-09T15:33:22.366Z,16.27
2022-12-09T15:38:22.337Z,16.15
2022-12-09T15:43:21.661Z,16.17
2022-12-09T15:48:22.284Z,16.46
2022-12-09T15:53:22.223Z,16.12
2022-12-09T15:58:20.367Z,21.42
2022-12-09T16:03:18.704Z,25.06
2022-12-09T16:08:20.302Z,27.57
2022-12-09T16:13:17.372Z,28.24
2022-12-09T16:18:18.542Z,29.48
2022-12-09T16:23:16.159Z,30.24
2022-12-09T16:28:17.082Z,30.00
2022-12-09T16:33:20.460Z,29.85
2022-12-09T16:38:13.854Z,30.07
2022-12-09T16:43:12.871Z,30.42
2022-12-09T16:48:12.311Z,30.76
2022-12-09T16:53:11.527Z,30.94
2022-12-09T16:58:12.381Z,30.45
2022-12-09T17:03:10.090Z,31.02
2022-12-09T17:08:09.256Z,30.70
2022-12-09T17:13:08.433Z,30.54
2022-12-09T17:18:07.716Z,30.73
2022-12-09T17:23:09.030Z,31.16
2022-12-09T17:28:07.239Z,31.23
2022-12-09T17:33:06.163Z,32.26
2022-12-09T17:38:04.831Z,31.43
2022-12-09T17:43:05.568Z,30.60
2022-12-09T17:48:06.610Z,30.61
2022-12-09T17:53:04.244Z,30.80
2022-12-09T17:58:01.161Z,31.81
2022-12-09T18:03:01.447Z,32.07
2022-12-09T18:08:00.795Z,31.80
2022-12-09T18:12:59.068Z,31.25
2022-12-09T18:18:00.730Z,30.69
2022-12-09T18:22:57.920Z,30.45
2022-12-09T18:27:57.021Z,30.97
2022-12-09T18:32:58.212Z,31.50
2022-12-09T18:38:05.027Z,31.65
2022-12-09T18:42:55.358Z,31.10
2022-12-09T18:47:55.592Z,30.61
2022-12-09T18:52:52.850Z,30.92
2022-12-09T18:57:52.331Z,31.65
2022-12-09T19:02:51.676Z,31.95
2022-12-09T19:07:50.677Z,30.80
2022-12-09T19:12:56.297Z,30.62
2022-12-09T19:17:49.378Z,31.14
2022-12-09T19:22:49.716Z,31.28
2022-12-09T19:27:47.830Z,30.92
2022-12-09T19:32:53.490Z,30.75
2022-12-09T19:37:46.738Z,30.75
2022-12-09T19:42:46.744Z,31.46
2022-12-09T19:47:44.918Z,31.66
2022-12-09T19:52:45.132Z,32.03
2022-12-09T19:57:42.958Z,32.35
2022-12-09T20:02:46.812Z,32.15
2022-12-09T20:07:41.813Z,31.36
2022-12-09T20:12:41.927Z,31.34
2022-12-09T20:17:40.256Z,31.16
2022-12-09T20:22:43.177Z,30.47
2022-12-09T20:27:37.575Z,30.60
2022-12-09T20:32:39.020Z,31.16
2022-12-09T20:37:38.250Z,31.69
2022-12-09T20:42:37.589Z,31.58
2022-12-09T20:47:35.407Z,31.16
2022-12-09T20:52:34.922Z,30.64
2022-12-09T20:57:33.083Z,30.91
2022-12-09T21:02:32.901Z,31.32
2022-12-09T21:07:32.081Z,30.65
2022-12-09T21:12:31.545Z,31.43
2022-12-09T21:17:31.943Z,30.73
2022-12-09T21:22:31.138Z,29.46
2022-12-09T21:27:30.248Z,28.40
2022-12-09T21:32:28.487Z,28.19
2022-12-09T21:37:28.513Z,30.45
2022-12-09T21:42:27.781Z,30.83
2022-12-09T21:47:26.962Z,30.76
2022-12-09T21:52:25.159Z,31.81
2022-12-09T21:57:24.348Z,31.84
2022-12-09T22:02:24.576Z,31.92
2022-12-09T22:07:23.889Z,31.68
2022-12-09T22:12:21.902Z,31.39
2022-12-09T22:17:21.091Z,31.31
2022-12-09T22:22:21.278Z,31.78
2022-12-09T22:27:19.455Z,31.92
2022-12-09T22:32:18.661Z,31.58
2022-12-09T22:37:42.383Z,31.85
2022-12-09T22:42:18.120Z,31.68
2022-12-09T22:47:16.295Z,30.95
2022-12-09T22:52:16.494Z,30.23
2022-12-09T22:57:15.707Z,29.48
2022-12-09T23:02:13.993Z,30.22
2022-12-09T23:07:14.202Z,30.79
2022-12-09T23:12:13.382Z,31.26
2022-12-09T23:17:11.542Z,31.86
2022-12-09T23:22:10.722Z,31.46
2022-12-09T23:27:10.915Z,31.26
2022-12-09T23:32:09.086Z,31.31
2022-12-09T23:37:08.285Z,31.93
2022-12-09T23:42:07.509Z,32.01
2022-12-09T23:47:08.690Z,32.11
2022-12-09T23:52:05.868Z,31.69
2022-12-09T23:57:05.027Z,30.88
